createdAt,value
2019-01-19T00:02:35.155Z,-1.60
2019-01-19T00:05:47.344Z,-1.70
2019-01-19T00:08:54.206Z,-1.70
2019-01-19T00:12:20.370Z,-1.70
2019-01-19T00:15:21.526Z,-1.60
2019-01-19T00:18:35.347Z,-1.70
2019-01-19T00:21:43.663Z,-1.70
2019-01-19T00:24:44.604Z,-1.70
2019-01-19T00:27:57.943Z,-1.70
2019-01-19T00:30:49.236Z,-1.70
2019-01-19T00:33:54.987Z,-1.70
2019-01-19T00:36:59.127Z,-1.70
2019-01-19T00:40:13.068Z,-1.70
2019-01-19T00:43:16.596Z,-1.80
2019-01-19T00:46:55.371Z,-1.90
2019-01-19T00:49:49.703Z,-1.90
2019-01-19T00:52:43.364Z,-1.90
2019-01-19T00:55:58.694Z,-1.80
2019-01-19T00:58:55.667Z,-1.80
2019-01-19T01:01:55.440Z,-1.80
2019-01-19T01:04:52.644Z,-1.70
2019-01-19T01:07:59.907Z,-1.70
2019-01-19T01:10:51.391Z,-1.70
2019-01-19T01:13:58.706Z,-1.70
2019-01-19T01:17:05.576Z,-1.70
2019-01-19T01:19:48.624Z,-1.80
2019-01-19T01:22:57.741Z,-1.80
2019-01-19T01:26:21.163Z,-1.80
2019-01-19T01:29:41.494Z,-1.80
2019-01-19T01:32:39.732Z,-1.80
2019-01-19T01:35:59.894Z,-1.80
2019-01-19T01:39:00.016Z,-1.90
2019-01-19T01:42:07.368Z,-1.90
2019-01-19T01:44:56.671Z,-1.90
2019-01-19T01:48:07.762Z,-1.90
2019-01-19T01:51:06.539Z,-1.90
2019-01-19T01:54:17.731Z,-1.90
2019-01-19T01:56:47.963Z,-1.90
2019-01-19T01:59:48.088Z,-2.00
2019-01-19T02:02:32.527Z,-2.00
2019-01-19T02:05:40.233Z,-2.00
2019-01-19T02:08:17.804Z,-2.10
2019-01-19T02:11:25.400Z,-2.10
2019-01-19T02:17:03.213Z,-2.10
2019-01-19T02:20:11.460Z,-2.10
2019-01-19T02:23:20.359Z,-2.10
2019-01-19T02:26:20.931Z,-2.10
2019-01-19T02:29:14.723Z,-2.10
2019-01-19T02:31:54.248Z,-2.10
2019-01-19T02:35:01.336Z,-2.10
2019-01-19T02:37:49.875Z,-2.10
2019-01-19T02:40:40.660Z,-2.10
2019-01-19T02:43:25.617Z,-2.10
2019-01-19T02:46:33.122Z,-2.10
2019-01-19T02:49:59.928Z,-2.10
2019-01-19T02:53:22.080Z,-2.20
2019-01-19T02:56:06.647Z,-2.20
2019-01-19T02:59:00.881Z,-2.30
2019-01-19T03:02:10.699Z,-2.30
2019-01-19T03:04:46.436Z,-2.30
2019-01-19T03:08:12.736Z,-2.30
2019-01-19T03:11:13.245Z,-2.30
2019-01-19T03:14:27.693Z,-2.20
2019-01-19T03:17:43.679Z,-2.20
2019-01-19T03:20:47.167Z,-2.20
2019-01-19T03:24:01.467Z,-2.10
2019-01-19T03:26:58.576Z,-2.10
2019-01-19T03:29:37.674Z,-2.10
2019-01-19T03:32:37.640Z,-2.20
2019-01-19T03:35:39.688Z,-2.20
2019-01-19T03:39:03.111Z,-2.20
2019-01-19T03:42:05.022Z,-2.20
2019-01-19T03:45:00.214Z,-2.20
2019-01-19T03:47:55.699Z,-2.20
2019-01-19T03:50:50.675Z,-2.20
2019-01-19T03:53:39.876Z,-2.20
2019-01-19T03:56:41.351Z,-2.20
2019-01-19T04:00:06.967Z,-2.20
2019-01-19T04:03:04.129Z,-2.20
2019-01-19T04:05:49.094Z,-2.20
2019-01-19T04:09:08.950Z,-2.20
2019-01-19T04:12:29.045Z,-2.20
2019-01-19T04:15:20.904Z,-2.30
2019-01-19T04:18:05.378Z,-2.30
2019-01-19T04:21:04.236Z,-2.40
2019-01-19T04:23:34.656Z,-2.40
2019-01-19T04:26:16.874Z,-2.30
2019-01-19T04:28:47.558Z,-2.40
2019-01-19T04:31:17.733Z,-2.40
2019-01-19T04:33:48.256Z,-2.50
2019-01-19T04:36:21.997Z,-2.50
2019-01-19T04:38:52.431Z,-2.50
2019-01-19T04:41:22.741Z,-2.50
2019-01-19T04:43:52.897Z,-2.40
2019-01-19T04:46:24.799Z,-2.40
2019-01-19T04:48:55.108Z,-2.40
2019-01-19T04:51:25.320Z,-2.40
2019-01-19T04:53:56.992Z,-2.40
2019-01-19T04:56:27.143Z,-2.50
2019-01-19T04:58:57.337Z,-2.40
2019-01-19T05:01:27.516Z,-2.50
2019-01-19T05:03:57.700Z,-2.60
2019-01-19T05:06:30.510Z,-2.60
2019-01-19T05:08:59.783Z,-2.60
2019-01-19T05:11:29.960Z,-2.60
2019-01-19T05:14:00.188Z,-2.60
2019-01-19T05:16:30.398Z,-2.60
2019-01-19T05:19:00.553Z,-2.60
2019-01-19T05:21:30.944Z,-2.50
2019-01-19T05:24:01.106Z,-2.50
2019-01-19T05:26:31.363Z,-2.50
2019-01-19T05:29:01.572Z,-2.50
2019-01-19T05:31:31.747Z,-2.50
2019-01-19T05:34:01.971Z,-2.50
2019-01-19T05:36:38.208Z,-2.50
2019-01-19T05:39:05.559Z,-2.50
2019-01-19T05:41:35.767Z,-2.40
2019-01-19T05:44:06.047Z,-2.40
2019-01-19T05:46:36.277Z,-2.40
2019-01-19T05:49:06.462Z,-2.40
2019-01-19T05:51:36.708Z,-2.40
2019-01-19T05:54:06.920Z,-2.50
2019-01-19T05:56:38.589Z,-2.50
2019-01-19T05:59:08.768Z,-2.50
2019-01-19T06:01:38.956Z,-2.60
2019-01-19T06:04:09.203Z,-2.60
2019-01-19T06:06:46.683Z,-2.50
2019-01-19T06:09:11.276Z,-2.50
2019-01-19T06:11:41.459Z,-2.50
2019-01-19T06:14:11.656Z,-2.60
2019-01-19T06:16:41.828Z,-2.60
2019-01-19T06:19:12.285Z,-2.50
2019-01-19T06:21:50.585Z,-2.50
2019-01-19T06:24:20.775Z,-2.50
2019-01-19T06:26:50.975Z,-2.60
2019-01-19T06:29:21.171Z,-2.60
2019-01-19T06:31:51.369Z,-2.60
2019-01-19T06:34:21.583Z,-2.60
2019-01-19T06:36:55.117Z,-2.60
2019-01-19T06:39:23.792Z,-2.60
2019-01-19T06:41:54.036Z,-2.50
2019-01-19T06:44:24.247Z,-2.50
2019-01-19T06:46:54.461Z,-2.60
2019-01-19T06:49:24.637Z,-2.50
2019-01-19T06:51:54.845Z,-2.50
2019-01-19T06:54:26.433Z,-2.60
2019-01-19T06:56:56.615Z,-2.60
2019-01-19T06:59:26.812Z,-2.50
2019-01-19T07:01:56.999Z,-2.50
2019-01-19T07:04:27.239Z,-2.50
2019-01-19T07:07:02.645Z,-2.40
2019-01-19T07:09:29.327Z,-2.50
2019-01-19T07:12:01.864Z,-2.40
2019-01-19T07:14:32.095Z,-2.30
2019-01-19T07:17:02.287Z,-2.30
2019-01-19T07:19:32.687Z,-2.30
2019-01-19T07:22:02.888Z,-2.30
2019-01-19T07:24:33.067Z,-2.30
2019-01-19T07:27:03.262Z,-2.30
2019-01-19T07:29:33.455Z,-2.40
2019-01-19T07:32:03.660Z,-2.30
2019-01-19T07:34:33.852Z,-2.30
2019-01-19T07:37:09.674Z,-2.30
2019-01-19T07:39:35.937Z,-2.30
2019-01-19T07:42:06.179Z,-2.30
2019-01-19T07:44:36.357Z,-2.20
2019-01-19T07:47:06.952Z,-1.90
2019-01-19T07:49:37.180Z,-1.80
2019-01-19T07:52:07.505Z,-1.80
2019-01-19T07:54:37.695Z,-1.70
2019-01-19T07:57:07.903Z,-1.70
2019-01-19T07:59:38.101Z,-1.70
2019-01-19T08:02:08.659Z,-1.70
2019-01-19T08:04:38.840Z,-1.50
2019-01-19T08:07:09.055Z,-1.40
2019-01-19T08:09:39.277Z,-1.40
2019-01-19T08:12:09.468Z,-1.50
2019-01-19T08:14:39.689Z,-1.60
2019-01-19T08:17:09.909Z,-1.70
2019-01-19T08:19:40.084Z,-1.80
2019-01-19T08:22:10.298Z,-1.80
2019-01-19T08:24:41.488Z,-1.80
2019-01-19T08:27:11.687Z,-1.80
2019-01-19T08:29:41.895Z,-1.80
2019-01-19T08:32:12.095Z,-1.80
2019-01-19T08:34:42.297Z,-1.70
2019-01-19T08:37:12.576Z,-1.70
2019-01-19T08:39:43.601Z,-1.50
2019-01-19T08:42:13.876Z,-1.30
2019-01-19T08:44:44.184Z,-1.20
2019-01-19T08:47:14.489Z,-1.20
2019-01-19T08:49:44.704Z,-1.10
2019-01-19T08:52:14.916Z,-1.10
2019-01-19T08:54:45.080Z,-1.00
2019-01-19T08:57:15.323Z,-1.00
2019-01-19T08:59:45.513Z,-1.00
2019-01-19T09:02:15.872Z,-1.00
2019-01-19T09:04:46.272Z,-0.90
2019-01-19T09:07:16.596Z,-0.70
2019-01-19T09:09:46.843Z,-0.50
2019-01-19T09:12:17.057Z,-0.40
2019-01-19T09:14:47.275Z,-0.30
2019-01-19T09:17:17.467Z,-0.10
2019-01-19T09:19:47.711Z,0.00
2019-01-19T09:22:17.939Z,0.00
2019-01-19T09:24:48.220Z,0.00
2019-01-19T09:27:18.424Z,0.10
2019-01-19T09:29:48.623Z,0.20
2019-01-19T09:32:18.919Z,0.50
2019-01-19T09:34:49.159Z,0.60
2019-01-19T09:37:19.338Z,0.80
2019-01-19T09:39:49.571Z,0.80
2019-01-19T09:42:19.832Z,0.80
2019-01-19T09:44:50.047Z,1.00
2019-01-19T09:47:20.280Z,1.10
2019-01-19T09:49:50.468Z,1.40
2019-01-19T09:52:21.337Z,1.90
2019-01-19T09:54:51.649Z,2.20
2019-01-19T09:57:21.876Z,2.70
2019-01-19T09:59:52.060Z,2.90
2019-01-19T10:02:22.260Z,2.90
2019-01-19T10:04:52.440Z,3.20
2019-01-19T10:07:22.623Z,3.40
2019-01-19T10:09:52.859Z,4.00
2019-01-19T10:12:23.106Z,4.10
2019-01-19T10:14:53.290Z,4.20
2019-01-19T10:17:23.672Z,4.10
2019-01-19T10:19:53.852Z,4.10
2019-01-19T10:22:24.071Z,4.00
2019-01-19T10:24:54.295Z,4.20
2019-01-19T10:27:24.492Z,4.40
2019-01-19T10:29:54.684Z,4.60
2019-01-19T10:32:24.894Z,4.90
2019-01-19T10:34:55.107Z,5.00
2019-01-19T10:37:25.270Z,4.50
2019-01-19T10:39:55.426Z,4.40
2019-01-19T10:42:25.809Z,4.00
2019-01-19T10:44:57.091Z,4.20
2019-01-19T10:47:27.294Z,4.40
2019-01-19T10:49:57.592Z,4.70
2019-01-19T10:52:27.768Z,4.80
2019-01-19T10:54:57.911Z,4.60
2019-01-19T10:57:28.098Z,4.90
2019-01-19T10:59:58.250Z,4.80
2019-01-19T11:02:28.722Z,5.40
2019-01-19T11:05:00.281Z,5.30
2019-01-19T11:07:30.547Z,4.90
2019-01-19T11:10:00.823Z,4.60
2019-01-19T11:12:31.052Z,4.50
2019-01-19T11:15:01.235Z,5.20
2019-01-19T11:17:31.420Z,5.60
2019-01-19T11:20:01.572Z,5.70
2019-01-19T11:22:31.801Z,5.60
2019-01-19T11:25:02.062Z,5.70
2019-01-19T11:27:32.295Z,5.90
2019-01-19T11:30:02.655Z,6.50
2019-01-19T11:32:32.821Z,5.80
2019-01-19T11:35:03.011Z,5.40
2019-01-19T11:37:33.199Z,5.50
2019-01-19T11:40:03.374Z,5.60
2019-01-19T11:42:37.866Z,5.60
2019-01-19T11:45:09.166Z,5.20
2019-01-19T11:47:39.419Z,5.20
2019-01-19T11:50:09.846Z,5.50
2019-01-19T11:52:40.003Z,5.50
2019-01-19T11:55:12.152Z,5.60
2019-01-19T11:57:42.359Z,5.60
2019-01-19T12:00:15.919Z,5.60
2019-01-19T12:02:46.083Z,5.30
2019-01-19T12:05:16.280Z,4.90
2019-01-19T12:07:46.447Z,5.20
2019-01-19T12:10:19.504Z,5.50
2019-01-19T12:12:49.647Z,5.70
2019-01-19T12:15:19.870Z,5.70
2019-01-19T12:17:50.079Z,5.90
2019-01-19T12:20:25.901Z,5.70
2019-01-19T12:22:56.375Z,5.50
2019-01-19T12:25:26.762Z,5.50
2019-01-19T12:27:56.932Z,5.80
2019-01-19T12:30:30.719Z,6.30
2019-01-19T12:33:00.879Z,5.80
2019-01-19T12:35:31.417Z,5.70
2019-01-19T12:38:01.845Z,5.70
2019-01-19T12:40:32.243Z,5.90
2019-01-19T12:43:22.847Z,6.10
2019-01-19T12:46:07.231Z,5.70
2019-01-19T12:48:37.394Z,5.30
2019-01-19T12:51:09.939Z,5.30
2019-01-19T12:53:40.195Z,5.40
2019-01-19T12:56:10.363Z,5.40
2019-01-19T12:58:40.529Z,5.10
2019-01-19T13:01:10.709Z,5.10
2019-01-19T13:03:40.901Z,5.00
2019-01-19T13:06:40.228Z,5.40
2019-01-19T13:09:28.379Z,5.50
2019-01-19T13:12:44.654Z,5.40
2019-01-19T13:15:59.080Z,5.10
2019-01-19T13:19:15.370Z,5.00
2019-01-19T13:22:40.938Z,5.20
2019-01-19T13:26:00.290Z,5.10
2019-01-19T13:29:05.369Z,4.90
2019-01-19T13:32:15.832Z,4.60
2019-01-19T13:35:31.067Z,4.50
2019-01-19T13:38:46.106Z,4.70
2019-01-19T13:42:05.512Z,4.90
2019-01-19T13:45:15.767Z,5.10
2019-01-19T13:48:22.911Z,5.30
2019-01-19T13:51:31.322Z,5.00
2019-01-19T13:54:42.684Z,5.40
2019-01-19T13:57:52.895Z,5.40
2019-01-19T14:00:53.344Z,5.40
2019-01-19T14:04:05.025Z,5.20
2019-01-19T14:07:19.672Z,4.80
2019-01-19T14:10:15.070Z,4.50
2019-01-19T14:13:08.675Z,4.40
2019-01-19T14:16:10.603Z,4.20
2019-01-19T14:19:24.806Z,4.00
2019-01-19T14:22:24.000Z,3.70
2019-01-19T14:25:59.895Z,3.40
2019-01-19T14:29:02.061Z,3.40
2019-01-19T14:32:07.923Z,3.20
2019-01-19T14:34:53.999Z,3.00
2019-01-19T14:38:17.223Z,2.90
2019-01-19T14:41:18.317Z,2.90
2019-01-19T14:44:12.495Z,2.90
2019-01-19T14:47:13.638Z,2.80
2019-01-19T14:50:32.036Z,2.70
2019-01-19T14:53:30.043Z,2.70
2019-01-19T14:56:41.443Z,2.70
2019-01-19T14:59:43.518Z,2.70
2019-01-19T15:02:51.925Z,2.60
2019-01-19T15:05:44.557Z,2.60
2019-01-19T15:08:50.276Z,2.50
2019-01-19T15:11:57.644Z,2.50
2019-01-19T15:15:11.863Z,2.40
2019-01-19T15:18:23.384Z,2.30
2019-01-19T15:21:16.527Z,2.20
2019-01-19T15:24:18.298Z,2.20
2019-01-19T15:27:34.680Z,2.10
2019-01-19T15:30:34.472Z,2.00
2019-01-19T15:33:55.275Z,2.00
2019-01-19T15:37:02.289Z,2.00
2019-01-19T15:39:58.962Z,1.90
2019-01-19T15:42:42.243Z,1.80
2019-01-19T15:45:55.425Z,1.70
2019-01-19T15:48:59.888Z,1.70
2019-01-19T15:52:23.508Z,1.60
2019-01-19T15:55:37.404Z,1.60
2019-01-19T15:58:31.499Z,1.60
2019-01-19T16:01:40.663Z,1.60
2019-01-19T16:04:57.661Z,1.50
2019-01-19T16:07:54.297Z,1.40
2019-01-19T16:10:55.542Z,1.30
2019-01-19T16:14:01.000Z,1.30
2019-01-19T16:17:12.635Z,1.20
2019-01-19T16:20:27.160Z,1.00
2019-01-19T16:23:23.279Z,0.90
2019-01-19T16:26:37.344Z,0.70
2019-01-19T16:29:27.318Z,0.70
2019-01-19T16:32:25.411Z,0.70
2019-01-19T16:35:22.226Z,0.70
2019-01-19T16:38:15.383Z,0.70
2019-01-19T16:41:18.239Z,0.60
2019-01-19T16:44:38.692Z,0.60
2019-01-19T16:47:56.068Z,0.60
2019-01-19T16:50:57.433Z,0.60
2019-01-19T16:54:09.059Z,0.70
2019-01-19T16:57:35.723Z,0.60
2019-01-19T17:00:48.667Z,0.50
2019-01-19T17:03:41.128Z,0.50
2019-01-19T17:06:46.885Z,0.50
2019-01-19T17:09:42.448Z,0.50
2019-01-19T17:12:54.673Z,0.50
2019-01-19T17:16:24.317Z,0.50
2019-01-19T17:19:44.751Z,0.40
2019-01-19T17:23:01.420Z,0.40
2019-01-19T17:26:18.077Z,0.40
2019-01-19T17:29:06.355Z,0.40
2019-01-19T17:32:05.679Z,0.40
2019-01-19T17:35:15.473Z,0.50
2019-01-19T17:38:25.587Z,0.50
2019-01-19T17:41:41.866Z,0.60
2019-01-19T17:44:46.582Z,0.60
2019-01-19T17:47:35.330Z,0.60
2019-01-19T17:50:42.231Z,0.50
2019-01-19T17:53:29.941Z,0.50
2019-01-19T17:56:38.968Z,0.50
2019-01-19T17:59:39.172Z,0.50
2019-01-19T18:02:51.655Z,0.50
2019-01-19T18:05:51.306Z,0.50
2019-01-19T18:08:37.131Z,0.50
2019-01-19T18:11:33.193Z,0.40
2019-01-19T18:14:38.743Z,0.40
2019-01-19T18:17:58.332Z,0.40
2019-01-19T18:20:57.036Z,0.30
2019-01-19T18:24:03.179Z,0.30
2019-01-19T18:26:57.819Z,0.20
2019-01-19T18:30:08.324Z,0.20
2019-01-19T18:33:22.908Z,0.20
2019-01-19T18:36:39.120Z,0.20
2019-01-19T18:40:02.552Z,0.10
2019-01-19T18:43:10.482Z,0.10
2019-01-19T18:45:58.924Z,0.00
2019-01-19T18:48:58.341Z,-0.10
2019-01-19T18:52:30.720Z,0.00
2019-01-19T18:55:42.800Z,0.00
2019-01-19T18:58:45.967Z,-0.10
2019-01-19T19:01:50.018Z,-0.10
2019-01-19T19:04:51.522Z,-0.10
2019-01-19T19:07:52.719Z,-0.10
2019-01-19T19:11:31.170Z,-0.10
2019-01-19T19:15:00.747Z,-0.10
2019-01-19T19:18:23.615Z,-0.10
2019-01-19T19:21:25.002Z,-0.10
2019-01-19T19:24:36.253Z,-0.20
2019-01-19T19:27:49.449Z,-0.20
2019-01-19T19:30:58.109Z,-0.20
2019-01-19T19:33:54.276Z,-0.20
2019-01-19T19:36:56.622Z,-0.30
2019-01-19T19:39:42.562Z,-0.30
2019-01-19T19:42:56.067Z,-0.30
2019-01-19T19:45:44.346Z,-0.30
2019-01-19T19:48:24.235Z,-0.40
2019-01-19T19:51:44.852Z,-0.40
2019-01-19T19:54:15.032Z,-0.40
2019-01-19T19:56:43.635Z,-0.50
2019-01-19T19:59:13.895Z,-0.40
2019-01-19T20:01:44.188Z,-0.50
2019-01-19T20:04:14.437Z,-0.50
2019-01-19T20:06:44.643Z,-0.60
2019-01-19T20:09:14.835Z,-0.60
2019-01-19T20:11:45.020Z,-0.70
2019-01-19T20:14:15.261Z,-0.70
2019-01-19T20:16:45.456Z,-0.70
2019-01-19T20:19:15.655Z,-0.70
2019-01-19T20:21:45.959Z,-0.70
2019-01-19T20:24:16.181Z,-0.70
2019-01-19T20:26:46.358Z,-0.70
2019-01-19T20:29:16.572Z,-0.80
2019-01-19T20:31:47.828Z,-0.80
2019-01-19T20:34:18.016Z,-0.80
2019-01-19T20:36:48.578Z,-0.80
2019-01-19T20:39:18.869Z,-0.80
2019-01-19T20:41:49.085Z,-0.90
2019-01-19T20:44:19.301Z,-0.90
2019-01-19T20:46:49.523Z,-0.90
2019-01-19T20:49:19.730Z,-0.90
2019-01-19T20:51:50.004Z,-0.90
2019-01-19T20:54:20.427Z,-1.00
2019-01-19T20:56:50.643Z,-0.90
2019-01-19T20:59:20.944Z,-1.00
2019-01-19T21:01:51.189Z,-1.00
2019-01-19T21:04:21.380Z,-1.00
2019-01-19T21:06:51.617Z,-1.00
2019-01-19T21:09:21.802Z,-1.00
2019-01-19T21:11:52.008Z,-0.90
2019-01-19T21:14:23.456Z,-0.90
2019-01-19T21:16:53.824Z,-0.90
2019-01-19T21:19:24.016Z,-1.00
2019-01-19T21:21:54.210Z,-1.00
2019-01-19T21:24:24.409Z,-1.00
2019-01-19T21:26:54.651Z,-1.10
2019-01-19T21:29:24.831Z,-1.20
2019-01-19T21:31:55.059Z,-1.10
2019-01-19T21:34:25.388Z,-1.20
2019-01-19T21:36:55.590Z,-1.20
2019-01-19T21:39:25.826Z,-1.30
2019-01-19T21:41:56.014Z,-1.30
2019-01-19T21:44:27.283Z,-1.20
2019-01-19T21:46:57.514Z,-1.20
2019-01-19T21:49:27.721Z,-1.30
2019-01-19T21:51:57.921Z,-1.30
2019-01-19T21:54:28.191Z,-1.40
2019-01-19T21:56:59.451Z,-1.40
2019-01-19T21:59:29.627Z,-1.40
2019-01-19T22:01:59.814Z,-1.40
2019-01-19T22:04:29.979Z,-1.40
2019-01-19T22:07:00.164Z,-1.40
2019-01-19T22:09:30.381Z,-1.50
2019-01-19T22:12:00.536Z,-1.50
2019-01-19T22:14:30.709Z,-1.50
2019-01-19T22:17:00.861Z,-1.50
2019-01-19T22:19:31.067Z,-1.50
2019-01-19T22:22:01.362Z,-1.50
2019-01-19T22:24:31.612Z,-1.50
2019-01-19T22:27:02.303Z,-1.60
2019-01-19T22:29:32.578Z,-1.60
2019-01-19T22:32:02.951Z,-1.60
2019-01-19T22:34:33.179Z,-1.60
2019-01-19T22:37:03.398Z,-1.60
2019-01-19T22:39:33.585Z,-1.60
2019-01-19T22:42:03.779Z,-1.50
2019-01-19T22:44:35.117Z,-1.60
2019-01-19T22:47:05.284Z,-1.60
2019-01-19T22:49:35.492Z,-1.70
2019-01-19T22:52:06.032Z,-1.80
2019-01-19T22:54:36.272Z,-1.90
2019-01-19T22:57:06.745Z,-1.90
2019-01-19T22:59:38.752Z,-2.00
2019-01-19T23:02:11.617Z,-2.00
2019-01-19T23:04:41.828Z,-2.00
2019-01-19T23:07:12.208Z,-1.90
2019-01-19T23:09:42.406Z,-1.90
2019-01-19T23:12:12.680Z,-2.00
2019-01-19T23:14:43.287Z,-2.00
2019-01-19T23:17:13.491Z,-2.00
2019-01-19T23:19:43.783Z,-2.00
2019-01-19T23:22:14.007Z,-2.10
2019-01-19T23:24:44.252Z,-2.10
2019-01-19T23:27:14.493Z,-2.20
2019-01-19T23:29:44.933Z,-2.30
2019-01-19T23:32:15.194Z,-2.50
2019-01-19T23:34:45.393Z,-2.60
2019-01-19T23:37:15.616Z,-2.70
2019-01-19T23:39:45.831Z,-2.80
2019-01-19T23:42:16.092Z,-2.80
2019-01-19T23:44:46.326Z,-2.80
2019-01-19T23:47:16.501Z,-2.90
2019-01-19T23:49:46.683Z,-2.80
2019-01-19T23:52:16.904Z,-2.70
2019-01-19T23:54:47.171Z,-2.70
2019-01-19T23:57:17.381Z,-2.60
2019-01-19T23:59:49.038Z,-2.50
